createdAt,value
2022-08-02T00:00:47.482Z,101529.78
2022-08-02T00:03:16.120Z,101537.13
2022-08-02T00:05:53.233Z,101523.66
2022-08-02T00:08:22.549Z,101523.72
2022-08-02T00:10:51.222Z,101520.97
2022-08-02T00:13:19.910Z,101528.56
2022-08-02T00:15:48.512Z,101528.03
2022-08-02T00:18:17.134Z,101524.59
2022-08-02T00:20:47.121Z,101524.31
2022-08-02T00:23:15.723Z,101524.56
2022-08-02T00:25:55.131Z,101519.56
2022-08-02T00:28:27.375Z,101514.50
2022-08-02T00:30:57.331Z,101513.94
2022-08-02T00:34:26.152Z,101511.03
2022-08-02T00:36:16.169Z,101512.09
2022-08-02T00:38:45.091Z,101505.22
2022-08-02T00:41:16.777Z,101504.84
2022-08-02T00:43:45.194Z,101495.56
2022-08-02T00:46:15.264Z,101510.91
2022-08-02T00:48:43.795Z,101512.53
2022-08-02T00:51:12.494Z,101508.28
2022-08-02T00:53:42.344Z,101504.25
2022-08-02T00:56:10.741Z,101514.75
2022-08-02T00:58:39.537Z,101504.56
2022-08-02T01:01:07.847Z,101517.72
2022-08-02T01:03:36.205Z,101515.28
2022-08-02T01:06:12.045Z,101519.78
2022-08-02T01:08:41.899Z,101508.09
2022-08-02T01:11:12.188Z,101508.66
2022-08-02T01:13:40.664Z,101511.97
2022-08-02T01:16:17.390Z,101503.00
2022-08-02T01:18:52.577Z,101497.16
2022-08-02T01:21:50.985Z,101498.25
2022-08-02T01:24:48.134Z,101486.72
2022-08-02T01:27:34.727Z,101491.75
2022-08-02T01:30:07.193Z,101496.78
2022-08-02T01:32:42.959Z,101493.19
2022-08-02T01:35:16.626Z,101493.59
2022-08-02T01:37:50.905Z,101493.00
2022-08-02T01:40:26.816Z,101496.03
2022-08-02T01:42:57.878Z,101487.91
2022-08-02T01:45:33.725Z,101484.53
2022-08-02T01:48:02.851Z,101473.06
2022-08-02T01:50:35.501Z,101474.47
2022-08-02T01:53:10.301Z,101479.03
2022-08-02T01:55:58.184Z,101486.06
2022-08-02T01:58:32.003Z,101481.56
2022-08-02T02:01:02.963Z,101483.00
2022-08-02T02:03:33.741Z,101482.53
2022-08-02T02:06:05.206Z,101480.53
2022-08-02T02:08:39.162Z,101480.53
2022-08-02T02:12:12.172Z,101483.19
2022-08-02T02:13:59.200Z,101480.97
2022-08-02T02:16:30.433Z,101480.16
2022-08-02T02:19:01.200Z,101472.81
2022-08-02T02:21:29.531Z,101467.13
2022-08-02T02:24:00.715Z,101475.34
2022-08-02T02:26:31.852Z,101473.06
2022-08-02T02:29:03.037Z,101466.00
2022-08-02T02:31:38.885Z,101468.88
2022-08-02T02:34:11.931Z,101471.78
2022-08-02T02:36:44.490Z,101472.03
2022-08-02T02:39:15.617Z,101464.75
2022-08-02T02:41:45.648Z,101463.38
2022-08-02T02:44:20.595Z,101454.88
2022-08-02T02:46:54.665Z,101451.75
2022-08-02T02:49:24.464Z,101437.28
2022-08-02T02:51:54.168Z,101439.19
2022-08-02T02:54:33.296Z,101438.22
2022-08-02T02:57:06.585Z,101436.38
2022-08-02T02:59:42.468Z,101433.25
2022-08-02T03:02:19.959Z,101435.88
2022-08-02T03:04:57.357Z,101435.22
2022-08-02T03:07:27.339Z,101434.16
2022-08-02T03:09:55.846Z,101437.19
2022-08-02T03:12:31.393Z,101437.09
2022-08-02T03:15:01.412Z,101435.38
2022-08-02T03:17:42.177Z,101435.66
2022-08-02T03:20:13.545Z,101435.31
2022-08-02T03:22:42.783Z,101438.13
2022-08-02T03:25:13.403Z,101433.31
2022-08-02T03:27:42.270Z,101431.91
2022-08-02T03:30:14.425Z,101436.47
2022-08-02T03:32:48.019Z,101428.91
2022-08-02T03:35:23.796Z,101430.63
2022-08-02T03:37:55.101Z,101425.81
2022-08-02T03:40:24.500Z,101419.00
2022-08-02T03:42:53.677Z,101431.75
2022-08-02T03:45:22.567Z,101426.94
2022-08-02T03:47:52.718Z,101423.69
2022-08-02T03:50:22.964Z,101435.28
2022-08-02T03:52:52.336Z,101435.47
2022-08-02T03:55:20.732Z,101430.19
2022-08-02T03:57:49.277Z,101439.38
2022-08-02T04:00:21.512Z,101439.63
2022-08-02T04:02:51.457Z,101430.94
2022-08-02T04:05:20.300Z,101441.59
2022-08-02T04:08:32.822Z,101429.00
2022-08-02T04:10:51.850Z,101439.66
2022-08-02T04:13:27.470Z,101437.69
2022-08-02T04:16:04.933Z,101441.59
2022-08-02T04:18:41.988Z,101435.78
2022-08-02T04:21:13.489Z,101435.81
2022-08-02T04:23:44.937Z,101434.97
2022-08-02T04:26:14.054Z,101455.66
2022-08-02T04:28:45.062Z,101441.09
2022-08-02T04:31:13.785Z,101440.78
2022-08-02T04:33:43.696Z,101448.63
2022-08-02T04:36:14.236Z,101442.09
2022-08-02T04:38:43.355Z,101442.38
2022-08-02T04:41:11.753Z,101443.72
2022-08-02T04:43:41.762Z,101438.69
2022-08-02T04:46:10.076Z,101439.66
2022-08-02T04:48:38.292Z,101438.53
2022-08-02T04:51:08.058Z,101446.66
2022-08-02T04:53:36.337Z,101450.59
2022-08-02T04:56:04.830Z,101459.19
2022-08-02T04:58:40.971Z,101456.34
2022-08-02T05:01:09.446Z,101454.25
2022-08-02T05:03:37.828Z,101450.63
2022-08-02T05:06:18.834Z,101457.72
2022-08-02T05:08:53.233Z,101452.69
2022-08-02T05:11:23.124Z,101457.28
2022-08-02T05:14:03.272Z,101438.56
2022-08-02T05:16:32.269Z,101448.19
2022-08-02T05:19:01.313Z,101449.09
2022-08-02T05:21:32.636Z,101438.19
2022-08-02T05:24:00.923Z,101447.78
2022-08-02T05:26:29.176Z,101444.44
2022-08-02T05:28:57.419Z,101443.31
2022-08-02T05:31:25.708Z,101447.63
2022-08-02T05:33:53.993Z,101438.66
2022-08-02T05:36:22.268Z,101445.78
2022-08-02T05:38:52.882Z,101445.84
2022-08-02T05:41:28.058Z,101446.84
2022-08-02T05:43:56.293Z,101444.75
2022-08-02T05:46:24.570Z,101446.09
2022-08-02T05:48:52.860Z,101437.28
2022-08-02T05:51:27.804Z,101442.47
2022-08-02T05:54:10.142Z,101443.91
2022-08-02T05:56:46.765Z,101437.72
2022-08-02T05:59:23.875Z,101433.03
2022-08-02T06:01:58.542Z,101425.72
2022-08-02T06:04:34.324Z,101425.06
2022-08-02T06:07:06.252Z,101432.88
2022-08-02T06:09:37.150Z,101432.97
2022-08-02T06:12:09.750Z,101436.31
2022-08-02T06:14:38.644Z,101439.63
2022-08-02T06:17:07.080Z,101429.50
2022-08-02T06:19:51.635Z,101432.78
2022-08-02T06:22:35.545Z,101434.72
2022-08-02T06:25:11.671Z,101434.75
2022-08-02T06:27:56.891Z,101432.88
2022-08-02T06:30:25.447Z,101435.47
2022-08-02T06:32:54.125Z,101433.75
2022-08-02T06:35:22.812Z,101427.44
2022-08-02T06:37:58.773Z,101430.72
2022-08-02T06:40:33.369Z,101433.53
2022-08-02T06:43:13.678Z,101435.09
2022-08-02T06:45:42.247Z,101432.75
2022-08-02T06:48:11.731Z,101441.22
2022-08-02T06:50:42.129Z,101436.97
2022-08-02T06:53:11.810Z,101438.22
2022-08-02T06:55:43.627Z,101429.59
2022-08-02T06:58:13.350Z,101434.06
2022-08-02T07:00:43.100Z,101440.91
2022-08-02T07:03:11.539Z,101439.69
2022-08-02T07:05:40.103Z,101442.06
2022-08-02T07:08:08.770Z,101431.25
2022-08-02T07:10:37.115Z,101441.09
2022-08-02T07:13:06.961Z,101435.16
2022-08-02T07:15:35.381Z,101424.25
2022-08-02T07:18:03.754Z,101426.44
2022-08-02T07:20:32.154Z,101428.94
2022-08-02T07:23:00.404Z,101426.56
2022-08-02T07:26:02.029Z,101429.38
2022-08-02T07:28:22.266Z,101433.69
2022-08-02T07:30:52.920Z,101430.63
2022-08-02T07:33:37.527Z,101430.72
2022-08-02T07:36:09.764Z,101426.63
2022-08-02T07:38:45.533Z,101429.66
2022-08-02T07:41:13.988Z,101434.00
2022-08-02T07:43:43.617Z,101426.25
2022-08-02T07:46:11.973Z,101422.16
2022-08-02T07:48:40.213Z,101431.50
2022-08-02T07:51:08.522Z,101431.09
2022-08-02T07:53:51.451Z,101419.69
2022-08-02T07:56:25.259Z,101420.13
2022-08-02T07:58:55.192Z,101419.25
2022-08-02T08:01:23.671Z,101415.41
2022-08-02T08:03:52.009Z,101413.81
2022-08-02T08:06:20.268Z,101407.66
2022-08-02T08:08:57.369Z,101409.88
2022-08-02T08:11:26.014Z,101415.63
2022-08-02T08:13:55.711Z,101408.63
2022-08-02T08:16:26.257Z,101404.72
2022-08-02T08:18:54.549Z,101398.47
2022-08-02T08:21:22.972Z,101399.88
2022-08-02T08:23:51.283Z,101404.91
2022-08-02T08:26:19.596Z,101403.16
2022-08-02T08:28:47.873Z,101394.72
2022-08-02T08:31:17.500Z,101396.03
2022-08-02T08:33:45.780Z,101400.56
2022-08-02T08:36:14.143Z,101390.88
2022-08-02T08:38:42.392Z,101391.56
2022-08-02T08:41:10.734Z,101404.72
2022-08-02T08:43:39.071Z,101404.72
2022-08-02T08:46:09.893Z,101399.06
2022-08-02T08:48:45.097Z,101404.25
2022-08-02T08:51:20.386Z,101403.00
2022-08-02T08:53:50.605Z,101403.09
2022-08-02T08:56:20.004Z,101395.34
2022-08-02T08:58:48.645Z,101398.44
2022-08-02T09:01:17.878Z,101395.41
2022-08-02T09:03:47.756Z,101395.22
2022-08-02T09:06:16.151Z,101393.38
2022-08-02T09:08:44.642Z,101395.06
2022-08-02T09:11:17.630Z,101391.03
2022-08-02T09:13:55.347Z,101383.75
2022-08-02T09:16:35.224Z,101378.44
2022-08-02T09:19:20.186Z,101377.50
2022-08-02T09:21:51.366Z,101375.69
2022-08-02T09:24:21.824Z,101377.28
2022-08-02T09:26:51.980Z,101377.16
2022-08-02T09:29:25.359Z,101378.16
2022-08-02T09:32:03.137Z,101382.72
2022-08-02T09:34:49.315Z,101385.78
2022-08-02T09:37:28.369Z,101382.53
2022-08-02T09:40:00.608Z,101379.53
2022-08-02T09:42:31.247Z,101363.97
2022-08-02T09:45:02.033Z,101376.59
2022-08-02T09:47:33.441Z,101375.88
2022-08-02T09:50:12.201Z,101374.69
2022-08-02T09:52:44.978Z,101373.22
2022-08-02T09:55:14.427Z,101367.06
2022-08-02T09:57:43.476Z,101362.78
2022-08-02T10:00:31.608Z,101367.94
2022-08-02T10:03:11.119Z,101364.25
2022-08-02T10:05:56.119Z,101360.09
2022-08-02T10:08:32.870Z,101368.50
2022-08-02T10:11:03.586Z,101365.44
2022-08-02T10:13:34.438Z,101367.88
2022-08-02T10:16:04.196Z,101366.84
2022-08-02T10:18:41.172Z,101365.69
2022-08-02T10:21:16.531Z,101359.72
2022-08-02T10:23:47.759Z,101358.06
2022-08-02T10:26:19.442Z,101346.41
2022-08-02T10:28:50.873Z,101345.00
2022-08-02T10:31:25.159Z,101349.53
2022-08-02T10:33:55.325Z,101349.22
2022-08-02T10:36:27.330Z,101345.03
2022-08-02T10:38:58.709Z,101339.38
2022-08-02T10:41:48.346Z,101335.16
2022-08-02T10:44:26.265Z,101334.94
2022-08-02T10:47:15.451Z,101337.22
2022-08-02T10:49:51.702Z,101314.75
2022-08-02T10:52:22.442Z,101333.44
2022-08-02T10:54:56.703Z,101333.88
2022-08-02T10:57:27.372Z,101322.63
2022-08-02T10:59:58.708Z,101331.31
2022-08-02T11:02:46.765Z,101325.06
2022-08-02T11:05:18.005Z,101328.72
2022-08-02T11:07:51.271Z,101334.81
2022-08-02T11:10:38.677Z,101326.31
2022-08-02T11:13:11.899Z,101326.91
2022-08-02T11:16:01.202Z,101316.81
2022-08-02T11:19:06.694Z,101313.16
2022-08-02T11:21:36.728Z,101328.81
2022-08-02T11:24:30.029Z,101320.94
2022-08-02T11:26:59.968Z,101333.78
2022-08-02T11:29:38.114Z,101324.97
2022-08-02T11:32:08.347Z,101326.81
2022-08-02T11:34:38.301Z,101326.84
2022-08-02T11:37:07.677Z,101323.19
2022-08-02T11:39:37.385Z,101310.31
2022-08-02T11:42:06.221Z,101321.75
2022-08-02T11:44:42.705Z,101318.28
2022-08-02T11:47:11.072Z,101320.41
2022-08-02T11:49:39.631Z,101312.41
2022-08-02T11:52:11.139Z,101318.03
2022-08-02T11:54:43.627Z,101317.50
2022-08-02T11:57:19.255Z,101323.66
2022-08-02T11:59:51.850Z,101310.16
2022-08-02T12:02:22.427Z,101316.31
2022-08-02T12:04:58.503Z,101308.25
2022-08-02T12:07:34.877Z,101305.75
2022-08-02T12:10:09.146Z,101301.44
2022-08-02T12:12:50.296Z,101294.56
2022-08-02T12:15:34.920Z,101306.19
2022-08-02T12:18:21.605Z,101298.06
2022-08-02T12:20:49.941Z,101299.34
2022-08-02T12:23:18.194Z,101310.50
2022-08-02T12:25:47.895Z,101303.56
2022-08-02T12:28:19.867Z,101289.69
2022-08-02T12:30:54.479Z,101295.66
2022-08-02T12:33:23.747Z,101283.75
2022-08-02T12:35:52.685Z,101293.16
2022-08-02T12:38:21.144Z,101291.09
2022-08-02T12:40:51.130Z,101307.47
2022-08-02T12:43:22.706Z,101299.53
2022-08-02T12:45:54.394Z,101304.13
2022-08-02T12:48:38.456Z,101308.59
2022-08-02T12:51:23.432Z,101299.63
2022-08-02T12:53:58.851Z,101294.06
2022-08-02T12:56:31.614Z,101298.84
2022-08-02T12:59:00.476Z,101285.88
2022-08-02T13:01:30.417Z,101282.63
2022-08-02T13:04:11.009Z,101281.88
2022-08-02T13:06:44.605Z,101274.94
2022-08-02T13:09:17.291Z,101278.69
2022-08-02T13:11:47.561Z,101273.06
2022-08-02T13:14:16.424Z,101277.31
2022-08-02T13:16:47.723Z,101270.56
2022-08-02T13:19:16.354Z,101261.94
2022-08-02T13:22:01.200Z,101260.84
2022-08-02T13:24:40.251Z,101249.63
2022-08-02T13:27:22.241Z,101249.59
2022-08-02T13:29:50.710Z,101249.16
2022-08-02T13:32:19.015Z,101256.19
2022-08-02T13:34:47.701Z,101258.31
2022-08-02T13:37:16.566Z,101268.41
2022-08-02T13:40:00.194Z,101258.84
2022-08-02T13:42:34.443Z,101238.13
2022-08-02T13:45:12.462Z,101241.59
2022-08-02T13:48:04.527Z,101251.03
2022-08-02T13:50:32.409Z,101247.13
2022-08-02T13:53:00.665Z,101246.47
2022-08-02T13:55:29.199Z,101242.00
2022-08-02T13:58:00.233Z,101247.63
2022-08-02T14:00:34.928Z,101240.28
2022-08-02T14:03:06.912Z,101244.59
2022-08-02T14:05:48.083Z,101233.28
2022-08-02T14:08:18.911Z,101243.75
2022-08-02T14:10:48.563Z,101238.59
2022-08-02T14:13:19.037Z,101229.19
2022-08-02T14:15:47.699Z,101231.47
2022-08-02T14:18:15.921Z,101233.09
2022-08-02T14:20:45.026Z,101226.06
2022-08-02T14:23:13.522Z,101220.78
2022-08-02T14:25:42.199Z,101222.66
2022-08-02T14:28:10.526Z,101216.38
2022-08-02T14:30:40.160Z,101212.84
2022-08-02T14:33:08.909Z,101210.69
2022-08-02T14:35:37.242Z,101212.09
2022-08-02T14:38:05.727Z,101215.78
2022-08-02T14:40:34.572Z,101219.78
2022-08-02T14:43:03.015Z,101211.88
2022-08-02T14:45:40.529Z,101206.63
2022-08-02T14:48:12.957Z,101202.03
2022-08-02T14:50:41.392Z,101200.91
2022-08-02T14:53:12.557Z,101200.50
2022-08-02T14:55:43.472Z,101191.72
2022-08-02T14:58:12.130Z,101203.13
2022-08-02T15:00:41.746Z,101196.16
2022-08-02T15:03:14.347Z,101193.56
2022-08-02T15:05:43.298Z,101189.09
2022-08-02T15:08:11.698Z,101189.72
2022-08-02T15:10:45.523Z,101192.81
2022-08-02T15:13:13.805Z,101191.19
2022-08-02T15:15:43.125Z,101185.84
2022-08-02T15:18:14.737Z,101187.13
2022-08-02T15:20:51.516Z,101181.09
2022-08-02T15:23:37.366Z,101177.63
2022-08-02T15:26:07.714Z,101183.34
2022-08-02T15:28:37.099Z,101181.09
2022-08-02T15:31:05.374Z,101178.72
2022-08-02T15:33:34.943Z,101182.84
2022-08-02T15:36:03.310Z,101176.31
2022-08-02T15:38:31.562Z,101173.00
2022-08-02T15:40:59.857Z,101170.31
2022-08-02T15:43:28.080Z,101163.97
2022-08-02T15:45:56.320Z,101175.38
2022-08-02T15:48:24.828Z,101173.91
2022-08-02T15:50:54.450Z,101170.81
2022-08-02T15:53:22.688Z,101165.94
2022-08-02T15:56:04.095Z,101167.47
2022-08-02T15:58:34.909Z,101166.09
2022-08-02T16:01:12.350Z,101160.53
2022-08-02T16:03:40.644Z,101157.38
2022-08-02T16:06:10.252Z,101155.72
2022-08-02T16:08:38.509Z,101153.38
2022-08-02T16:11:13.490Z,101150.50
2022-08-02T16:13:53.831Z,101146.91
2022-08-02T16:16:24.530Z,101156.19
2022-08-02T16:18:53.271Z,101152.25
2022-08-02T16:21:24.670Z,101155.44
2022-08-02T16:24:01.950Z,101151.44
2022-08-02T16:26:34.230Z,101148.03
2022-08-02T16:29:05.037Z,101140.56
2022-08-02T16:31:33.335Z,101147.91
2022-08-02T16:34:01.574Z,101143.16
2022-08-02T16:36:31.470Z,101156.66
2022-08-02T16:38:59.785Z,101144.94
2022-08-02T16:41:52.193Z,101149.88
2022-08-02T16:44:29.814Z,101141.81
2022-08-02T16:47:11.352Z,101134.38
2022-08-02T16:50:05.021Z,101132.44
2022-08-02T16:52:30.459Z,101132.16
2022-08-02T16:54:58.669Z,101121.75
2022-08-02T16:57:43.563Z,101116.41
2022-08-02T17:00:16.213Z,101118.06
2022-08-02T17:02:47.041Z,101118.53
2022-08-02T17:05:16.086Z,101118.88
2022-08-02T17:08:07.163Z,101111.34
2022-08-02T17:10:36.092Z,101114.94
2022-08-02T17:13:11.589Z,101103.53
2022-08-02T17:16:08.035Z,101107.69
2022-08-02T17:18:29.815Z,101107.03
2022-08-02T17:20:58.153Z,101110.94
2022-08-02T17:23:47.109Z,101117.53
2022-08-02T17:26:16.090Z,101104.84
2022-08-02T17:29:15.569Z,101108.69
2022-08-02T17:31:37.213Z,101114.72
2022-08-02T17:34:11.380Z,101112.69
2022-08-02T17:36:39.618Z,101115.34
2022-08-02T17:39:09.482Z,101117.66
2022-08-02T17:41:48.790Z,101121.63
2022-08-02T17:44:37.491Z,101115.31
2022-08-02T17:47:08.799Z,101119.94
2022-08-02T17:49:44.374Z,101115.88
2022-08-02T17:52:50.521Z,101119.41
2022-08-02T17:55:10.642Z,101116.47
2022-08-02T17:57:56.002Z,101121.03
2022-08-02T18:00:31.894Z,101111.44
2022-08-02T18:03:05.970Z,101119.81
2022-08-02T18:05:53.597Z,101104.38
2022-08-02T18:08:24.253Z,101104.09
2022-08-02T18:10:55.761Z,101110.81
2022-08-02T18:13:24.653Z,101109.22
2022-08-02T18:15:57.175Z,101107.75
2022-08-02T18:18:29.256Z,101113.28
2022-08-02T18:21:22.011Z,101115.41
2022-08-02T18:23:49.719Z,101110.25
2022-08-02T18:26:29.380Z,101112.69
2022-08-02T18:29:00.512Z,101115.09
2022-08-02T18:31:28.954Z,101119.16
2022-08-02T18:34:08.670Z,101113.75
2022-08-02T18:36:37.110Z,101122.81
2022-08-02T18:39:16.070Z,101118.22
2022-08-02T18:41:56.361Z,101112.94
2022-08-02T18:44:26.448Z,101113.59
2022-08-02T18:46:54.674Z,101114.41
2022-08-02T18:49:24.038Z,101113.84
2022-08-02T18:51:52.499Z,101118.34
2022-08-02T18:54:26.575Z,101116.91
2022-08-02T18:56:59.512Z,101118.84
2022-08-02T18:59:29.120Z,101115.78
2022-08-02T19:02:05.224Z,101124.47
2022-08-02T19:04:33.445Z,101118.22
2022-08-02T19:09:50.449Z,101123.72
2022-08-02T19:12:28.322Z,101129.63
2022-08-02T19:14:58.920Z,101131.78
2022-08-02T19:17:55.025Z,101126.06
2022-08-02T19:20:19.214Z,101129.47
2022-08-02T19:22:50.088Z,101132.91
2022-08-02T19:25:27.777Z,101129.38
2022-08-02T19:27:56.742Z,101132.31
2022-08-02T19:30:27.215Z,101133.13
2022-08-02T19:32:59.341Z,101134.81
2022-08-02T19:35:31.502Z,101138.91
2022-08-02T19:38:17.787Z,101145.63
2022-08-02T19:40:46.028Z,101151.66
2022-08-02T19:44:25.530Z,101143.41
2022-08-02T19:46:04.112Z,101144.75
2022-08-02T19:48:32.319Z,101143.88
2022-08-02T19:51:01.881Z,101145.44
2022-08-02T19:53:47.406Z,101146.53
2022-08-02T19:56:25.172Z,101140.50
2022-08-02T19:58:55.738Z,101142.53
2022-08-02T20:01:37.028Z,101145.00
2022-08-02T20:04:13.752Z,101147.28
2022-08-02T20:06:45.075Z,101148.63
2022-08-02T20:09:16.707Z,101142.78
2022-08-02T20:11:46.268Z,101152.69
2022-08-02T20:14:27.545Z,101150.97
2022-08-02T20:16:58.179Z,101143.63
2022-08-02T20:19:28.969Z,101152.66
2022-08-02T20:22:00.669Z,101147.31
2022-08-02T20:24:29.694Z,101154.69
2022-08-02T20:26:59.159Z,101154.19
2022-08-02T20:29:43.458Z,101152.34
2022-08-02T20:32:21.431Z,101152.59
2022-08-02T20:34:51.266Z,101154.91
2022-08-02T20:37:59.223Z,101155.22
2022-08-02T20:40:16.424Z,101153.16
2022-08-02T20:42:47.608Z,101153.91
2022-08-02T20:45:16.561Z,101158.41
2022-08-02T20:47:50.758Z,101160.88
2022-08-02T20:50:37.980Z,101160.06
2022-08-02T20:53:07.258Z,101155.72
2022-08-02T20:55:41.142Z,101149.91
2022-08-02T20:58:11.893Z,101153.28
2022-08-02T21:00:41.064Z,101148.16
2022-08-02T21:03:11.757Z,101148.38
2022-08-02T21:05:55.945Z,101150.69
2022-08-02T21:08:24.468Z,101151.34
2022-08-02T21:10:53.412Z,101145.34
2022-08-02T21:13:26.400Z,101163.03
2022-08-02T21:15:59.845Z,101152.19
2022-08-02T21:18:40.729Z,101152.50
2022-08-02T21:21:10.914Z,101154.38
2022-08-02T21:23:45.040Z,101149.84
2022-08-02T21:26:27.851Z,101144.88
2022-08-02T21:28:56.427Z,101150.91
2022-08-02T21:31:29.740Z,101154.06
2022-08-02T21:34:00.552Z,101149.91
2022-08-02T21:36:30.627Z,101153.59
2022-08-02T21:38:59.998Z,101153.22
2022-08-02T21:41:39.550Z,101154.78
2022-08-02T21:44:16.498Z,101152.94
2022-08-02T21:46:46.675Z,101148.78
2022-08-02T21:49:20.127Z,101155.84
2022-08-02T21:51:49.406Z,101157.34
2022-08-02T21:54:20.308Z,101155.34
2022-08-02T21:56:52.197Z,101155.72
2022-08-02T21:59:25.823Z,101159.59
2022-08-02T22:01:56.681Z,101160.66
2022-08-02T22:04:27.693Z,101162.88
2022-08-02T22:06:56.594Z,101156.56
2022-08-02T22:09:43.122Z,101159.50
2022-08-02T22:12:18.010Z,101165.81
2022-08-02T22:14:55.009Z,101170.13
2022-08-02T22:17:50.534Z,101162.44
2022-08-02T22:20:19.709Z,101169.78
2022-08-02T22:22:50.712Z,101173.94
2022-08-02T22:25:27.049Z,101167.63
2022-08-02T22:28:38.461Z,101171.63
2022-08-02T22:30:56.888Z,101164.47
2022-08-02T22:33:47.081Z,101171.47
2022-08-02T22:36:31.318Z,101172.47
2022-08-02T22:39:00.372Z,101178.59
2022-08-02T22:42:00.187Z,101168.88
2022-08-02T22:44:18.730Z,101165.34
2022-08-02T22:46:49.973Z,101167.16
2022-08-02T22:49:38.763Z,101167.84
2022-08-02T22:52:10.671Z,101166.00
2022-08-02T22:54:39.183Z,101166.00
2022-08-02T22:57:11.410Z,101168.81
2022-08-02T22:58:57.183Z,101123.13
2022-08-02T22:59:55.751Z,101168.31
2022-08-02T23:02:24.971Z,101171.34
2022-08-02T23:04:53.502Z,101171.66
2022-08-02T23:07:23.140Z,101170.34
2022-08-02T23:09:51.364Z,101174.03
2022-08-02T23:12:20.288Z,101172.03
2022-08-02T23:14:50.318Z,101174.53
2022-08-02T23:17:36.305Z,101167.56
2022-08-02T23:20:06.126Z,101161.41
2022-08-02T23:22:36.652Z,101168.72
2022-08-02T23:25:07.862Z,101167.69
2022-08-02T23:27:36.582Z,101164.06
2022-08-02T23:30:08.184Z,101166.56
2022-08-02T23:32:36.370Z,101165.06
2022-08-02T23:35:06.342Z,101167.41
2022-08-02T23:37:59.889Z,101165.72
2022-08-02T23:40:38.980Z,101160.56
2022-08-02T23:43:14.230Z,101170.56
2022-08-02T23:45:45.612Z,101170.91
2022-08-02T23:48:13.896Z,101172.06
2022-08-02T23:50:42.153Z,101165.25
2022-08-02T23:53:11.740Z,101165.56
2022-08-02T23:55:39.977Z,101160.56
2022-08-02T23:58:08.174Z,101162.09
